createdAt,value
2022-08-19T00:02:01.885Z,19.04
2022-08-19T00:05:07.167Z,19.05
2022-08-19T00:08:11.916Z,19.02
2022-08-19T00:11:25.848Z,19.02
2022-08-19T00:14:32.798Z,18.99
2022-08-19T00:17:37.412Z,18.98
2022-08-19T00:20:46.781Z,19.01
2022-08-19T00:23:51.360Z,18.98
2022-08-19T00:26:57.532Z,18.94
2022-08-19T00:30:21.823Z,18.97
2022-08-19T00:33:26.946Z,18.94
2022-08-19T00:36:35.214Z,18.92
2022-08-19T00:39:39.778Z,18.92
2022-08-19T00:42:44.549Z,18.92
2022-08-19T00:45:50.912Z,18.91
2022-08-19T00:48:57.215Z,18.90
2022-08-19T00:52:04.930Z,18.86
2022-08-19T00:55:12.862Z,18.88
2022-08-19T00:58:22.961Z,18.87
2022-08-19T01:01:27.476Z,18.86
2022-08-19T01:04:31.786Z,18.86
2022-08-19T01:07:38.559Z,18.88
2022-08-19T01:10:57.843Z,18.86
2022-08-19T01:14:02.021Z,18.83
2022-08-19T01:17:10.963Z,18.80
2022-08-19T01:20:22.453Z,18.81
2022-08-19T01:23:43.567Z,18.74
2022-08-19T01:26:48.430Z,18.76
2022-08-19T01:29:53.535Z,18.74
2022-08-19T01:33:01.487Z,18.73
2022-08-19T01:36:13.874Z,18.82
2022-08-19T01:39:24.224Z,18.78
2022-08-19T01:42:30.103Z,18.77
2022-08-19T01:45:36.994Z,18.78
2022-08-19T01:48:43.979Z,18.75
2022-08-19T01:51:50.630Z,18.74
2022-08-19T01:54:55.107Z,18.73
2022-08-19T01:58:02.439Z,18.73
2022-08-19T02:01:08.250Z,18.72
2022-08-19T02:04:13.007Z,18.67
2022-08-19T02:07:22.597Z,18.64
2022-08-19T02:10:27.241Z,18.67
2022-08-19T02:13:32.004Z,18.66
2022-08-19T02:16:38.136Z,18.67
2022-08-19T02:19:42.568Z,18.69
2022-08-19T02:22:46.935Z,18.71
2022-08-19T02:25:53.017Z,18.69
2022-08-19T02:28:57.671Z,18.66
2022-08-19T02:32:02.078Z,18.62
2022-08-19T02:35:12.177Z,18.59
2022-08-19T02:38:26.633Z,18.58
2022-08-19T02:41:33.816Z,18.55
2022-08-19T02:44:38.438Z,18.56
2022-08-19T02:47:43.707Z,18.56
2022-08-19T02:50:55.756Z,18.55
2022-08-19T02:54:01.002Z,18.52
2022-08-19T02:57:07.210Z,18.54
2022-08-19T03:00:15.201Z,18.53
2022-08-19T03:03:20.312Z,18.51
2022-08-19T03:06:25.189Z,18.50
2022-08-19T03:09:30.878Z,18.50
2022-08-19T03:12:39.789Z,18.49
2022-08-19T03:15:47.844Z,18.46
2022-08-19T03:18:53.972Z,18.46
2022-08-19T03:21:59.658Z,18.47
2022-08-19T03:25:05.193Z,18.43
2022-08-19T03:28:13.790Z,18.46
2022-08-19T03:31:43.456Z,18.47
2022-08-19T03:34:47.536Z,18.44
2022-08-19T03:37:52.040Z,18.46
2022-08-19T03:40:56.492Z,18.47
2022-08-19T03:44:00.680Z,18.47
2022-08-19T03:47:06.573Z,18.47
2022-08-19T03:50:10.965Z,18.48
2022-08-19T03:53:16.274Z,18.46
2022-08-19T03:56:21.908Z,18.46
2022-08-19T03:59:36.326Z,18.45
2022-08-19T04:02:42.877Z,18.43
2022-08-19T04:06:12.024Z,18.53
2022-08-19T04:09:16.711Z,18.52
2022-08-19T04:12:21.462Z,18.51
2022-08-19T04:15:26.011Z,18.50
2022-08-19T04:18:34.744Z,18.52
2022-08-19T04:21:43.745Z,18.56
2022-08-19T04:24:47.860Z,18.56
2022-08-19T04:27:52.142Z,18.54
2022-08-19T04:30:57.304Z,18.55
2022-08-19T04:34:05.699Z,18.60
2022-08-19T04:37:13.910Z,18.59
2022-08-19T04:40:36.757Z,18.55
2022-08-19T04:43:41.470Z,18.61
2022-08-19T04:46:51.993Z,18.56
2022-08-19T04:49:56.886Z,18.59
2022-08-19T04:53:01.241Z,18.66
2022-08-19T04:56:15.608Z,18.59
2022-08-19T04:59:21.210Z,18.54
2022-08-19T05:02:26.229Z,18.57
2022-08-19T05:05:32.565Z,18.63
2022-08-19T05:08:50.723Z,18.67
2022-08-19T05:11:55.657Z,18.64
2022-08-19T05:15:01.409Z,18.64
2022-08-19T05:18:24.755Z,18.65
2022-08-19T05:21:48.761Z,18.63
2022-08-19T05:25:11.759Z,18.65
2022-08-19T05:28:17.539Z,18.66
2022-08-19T05:31:22.571Z,18.63
2022-08-19T05:34:28.508Z,18.68
2022-08-19T05:37:32.928Z,18.72
2022-08-19T05:40:38.932Z,18.76
2022-08-19T05:43:43.140Z,18.75
2022-08-19T05:46:48.124Z,18.75
2022-08-19T05:49:52.566Z,18.73
2022-08-19T05:52:57.195Z,18.76
2022-08-19T05:56:13.041Z,18.73
2022-08-19T05:59:18.700Z,18.69
2022-08-19T06:02:23.850Z,18.69
2022-08-19T06:05:28.211Z,18.72
2022-08-19T06:08:35.052Z,18.78
2022-08-19T06:11:56.854Z,18.74
2022-08-19T06:15:08.011Z,18.73
2022-08-19T06:18:12.718Z,18.73
2022-08-19T06:21:16.955Z,18.79
2022-08-19T06:24:25.694Z,18.78
2022-08-19T06:27:32.054Z,18.76
2022-08-19T06:30:38.027Z,18.76
2022-08-19T06:33:44.443Z,18.78
2022-08-19T06:36:52.126Z,18.81
2022-08-19T06:39:56.657Z,18.86
2022-08-19T06:43:03.685Z,18.82
2022-08-19T06:46:17.692Z,18.84
2022-08-19T06:49:23.879Z,18.90
2022-08-19T06:52:28.503Z,18.92
2022-08-19T06:55:33.667Z,18.95
2022-08-19T06:58:39.381Z,18.96
2022-08-19T07:01:51.380Z,18.94
2022-08-19T07:04:58.416Z,18.98
2022-08-19T07:08:05.067Z,18.99
2022-08-19T07:11:14.348Z,18.99
2022-08-19T07:14:23.193Z,18.97
2022-08-19T07:17:27.958Z,18.96
2022-08-19T07:20:33.771Z,18.94
2022-08-19T07:23:39.069Z,18.96
2022-08-19T07:26:44.825Z,18.93
2022-08-19T07:29:55.768Z,18.98
2022-08-19T07:33:03.444Z,18.93
2022-08-19T07:36:12.273Z,18.94
2022-08-19T07:39:26.060Z,18.92
2022-08-19T07:42:33.019Z,18.93
2022-08-19T07:45:37.405Z,18.93
2022-08-19T07:48:49.033Z,18.91
2022-08-19T07:52:02.231Z,18.95
2022-08-19T07:55:40.153Z,18.97
2022-08-19T07:58:40.624Z,18.97
2022-08-19T08:01:46.012Z,19.02
2022-08-19T08:05:09.886Z,19.00
2022-08-19T08:08:48.280Z,19.05
2022-08-19T08:12:24.191Z,19.04
2022-08-19T08:15:31.345Z,19.05
2022-08-19T08:18:42.748Z,19.01
2022-08-19T08:21:47.203Z,19.05
2022-08-19T08:24:51.525Z,19.02
2022-08-19T08:27:57.539Z,18.98
2022-08-19T08:31:02.440Z,19.03
2022-08-19T08:34:15.099Z,19.07
2022-08-19T08:37:19.711Z,19.10
2022-08-19T08:40:30.033Z,19.17
2022-08-19T08:43:43.010Z,19.20
2022-08-19T08:46:55.154Z,19.20
2022-08-19T08:50:08.553Z,19.21
2022-08-19T08:53:16.946Z,19.19
2022-08-19T08:56:34.692Z,19.18
2022-08-19T08:59:42.475Z,19.17
2022-08-19T09:02:51.014Z,19.19
2022-08-19T09:06:04.881Z,19.18
2022-08-19T09:09:21.398Z,19.13
2022-08-19T09:13:09.694Z,19.17
2022-08-19T09:16:21.920Z,19.19
2022-08-19T09:19:33.861Z,19.24
2022-08-19T09:22:40.351Z,19.23
2022-08-19T09:25:45.365Z,19.28
2022-08-19T09:28:53.523Z,19.34
2022-08-19T09:31:58.952Z,19.39
2022-08-19T09:35:03.816Z,19.48
2022-08-19T09:38:23.095Z,19.47
2022-08-19T09:41:28.726Z,19.46
2022-08-19T09:44:34.933Z,19.47
2022-08-19T09:47:48.435Z,19.50
2022-08-19T09:50:53.355Z,19.56
2022-08-19T09:54:04.583Z,19.63
2022-08-19T09:57:10.128Z,19.72
2022-08-19T10:00:19.880Z,19.73
2022-08-19T10:03:29.849Z,19.72
2022-08-19T10:06:46.471Z,19.72
2022-08-19T10:09:54.152Z,19.69
2022-08-19T10:12:58.310Z,19.74
2022-08-19T10:16:16.871Z,19.69
2022-08-19T10:19:28.791Z,19.72
2022-08-19T10:22:43.764Z,19.65
2022-08-19T10:25:57.756Z,19.62
2022-08-19T10:29:09.099Z,19.67
2022-08-19T10:32:15.891Z,19.73
2022-08-19T10:35:30.619Z,19.78
2022-08-19T10:39:15.211Z,19.79
2022-08-19T10:42:40.166Z,19.92
2022-08-19T10:45:52.624Z,19.96
2022-08-19T10:48:58.025Z,19.98
2022-08-19T10:52:24.788Z,20.01
2022-08-19T10:55:56.090Z,20.08
2022-08-19T10:59:01.188Z,20.09
2022-08-19T11:02:10.931Z,20.18
2022-08-19T11:05:27.636Z,20.25
2022-08-19T11:08:45.507Z,20.31
2022-08-19T11:12:05.767Z,20.41
2022-08-19T11:15:43.077Z,20.44
2022-08-19T11:18:59.434Z,20.55
2022-08-19T11:22:04.474Z,20.74
2022-08-19T11:25:11.908Z,21.00
2022-08-19T11:28:17.619Z,21.03
2022-08-19T11:31:29.023Z,21.11
2022-08-19T11:34:34.296Z,21.03
2022-08-19T11:37:39.137Z,21.07
2022-08-19T11:40:43.783Z,21.08
2022-08-19T11:43:48.524Z,21.11
2022-08-19T11:46:53.848Z,21.08
2022-08-19T11:50:02.275Z,21.06
2022-08-19T11:53:13.735Z,21.02
2022-08-19T11:56:43.545Z,20.97
2022-08-19T11:59:57.125Z,21.01
2022-08-19T12:03:02.273Z,21.02
2022-08-19T12:06:14.281Z,20.99
2022-08-19T12:09:26.654Z,21.02
2022-08-19T12:13:04.779Z,21.00
2022-08-19T12:16:25.557Z,21.03
2022-08-19T12:19:35.307Z,21.09
2022-08-19T12:22:43.880Z,21.03
2022-08-19T12:25:59.074Z,21.08
2022-08-19T12:29:12.794Z,21.14
2022-08-19T12:32:24.882Z,21.18
2022-08-19T12:44:33.781Z,21.18
2022-08-19T12:47:56.762Z,21.17
2022-08-19T12:51:18.612Z,21.21
2022-08-19T12:54:38.305Z,21.20
2022-08-19T12:57:46.681Z,21.26
2022-08-19T13:01:01.312Z,21.33
2022-08-19T13:04:15.192Z,21.37
2022-08-19T13:07:34.001Z,21.38
2022-08-19T13:10:41.261Z,21.38
2022-08-19T13:13:52.199Z,21.32
2022-08-19T13:17:08.774Z,21.23
2022-08-19T13:20:21.610Z,21.11
2022-08-19T13:23:29.742Z,21.11
2022-08-19T13:26:39.863Z,21.17
2022-08-19T13:30:10.724Z,21.07
2022-08-19T13:33:21.675Z,20.95
2022-08-19T13:36:29.322Z,20.88
2022-08-19T13:39:41.575Z,20.84
2022-08-19T13:42:59.245Z,20.91
2022-08-19T13:46:11.894Z,20.79
2022-08-19T13:49:20.186Z,20.75
2022-08-19T13:52:31.606Z,20.81
2022-08-19T13:55:45.540Z,20.81
2022-08-19T13:58:51.078Z,20.78
2022-08-19T14:02:03.238Z,20.80
2022-08-19T14:05:16.404Z,20.92
2022-08-19T14:08:24.706Z,20.98
2022-08-19T14:11:33.436Z,21.01
2022-08-19T14:14:40.365Z,20.98
2022-08-19T14:17:50.136Z,20.96
2022-08-19T14:20:55.632Z,20.96
2022-08-19T14:24:00.415Z,20.98
2022-08-19T14:27:08.379Z,20.98
2022-08-19T14:30:22.538Z,20.95
2022-08-19T14:33:34.446Z,20.98
2022-08-19T14:36:41.063Z,21.03
2022-08-19T14:39:46.228Z,21.10
2022-08-19T14:42:50.693Z,21.10
2022-08-19T14:45:54.958Z,21.08
2022-08-19T14:49:00.085Z,21.03
2022-08-19T14:52:05.300Z,21.01
2022-08-19T14:55:10.182Z,21.00
2022-08-19T14:58:28.977Z,20.98
2022-08-19T15:01:35.858Z,20.98
2022-08-19T15:04:40.268Z,20.98
2022-08-19T15:07:44.973Z,21.08
2022-08-19T15:10:49.809Z,21.15
2022-08-19T15:13:55.991Z,21.27
2022-08-19T15:17:00.629Z,21.25
2022-08-19T15:20:06.752Z,21.35
2022-08-19T15:23:17.183Z,21.31
2022-08-19T15:26:48.935Z,21.37
2022-08-19T15:30:06.308Z,21.37
2022-08-19T15:33:26.690Z,21.33
2022-08-19T15:36:44.609Z,21.33
2022-08-19T15:40:02.490Z,21.35
2022-08-19T15:43:10.986Z,21.32
2022-08-19T15:46:22.404Z,21.30
2022-08-19T15:49:29.969Z,21.28
2022-08-19T15:52:35.350Z,21.29
2022-08-19T15:55:49.608Z,21.34
2022-08-19T15:59:13.179Z,21.39
2022-08-19T16:02:38.367Z,21.42
2022-08-19T16:06:09.312Z,21.40
2022-08-19T16:09:17.895Z,21.42
2022-08-19T16:12:30.618Z,21.37
2022-08-19T16:15:35.221Z,21.34
2022-08-19T16:18:39.595Z,21.28
2022-08-19T16:21:48.212Z,21.27
2022-08-19T16:24:52.755Z,21.34
2022-08-19T16:28:07.168Z,21.30
2022-08-19T16:31:15.270Z,21.17
2022-08-19T16:34:23.499Z,21.15
2022-08-19T16:37:30.649Z,21.12
2022-08-19T16:40:46.255Z,21.11
2022-08-19T16:43:54.547Z,20.97
2022-08-19T16:47:00.107Z,20.90
2022-08-19T16:50:09.075Z,20.83
2022-08-19T16:53:19.752Z,20.81
2022-08-19T16:56:25.638Z,20.74
2022-08-19T16:59:32.987Z,20.74
2022-08-19T17:02:42.315Z,20.71
2022-08-19T17:05:49.489Z,20.72
2022-08-19T17:09:00.924Z,20.69
2022-08-19T17:12:13.089Z,20.64
2022-08-19T17:15:17.741Z,20.69
2022-08-19T17:18:22.848Z,20.58
2022-08-19T17:21:32.222Z,20.59
2022-08-19T17:24:38.003Z,20.54
2022-08-19T17:27:45.115Z,20.45
2022-08-19T17:30:53.401Z,20.50
2022-08-19T17:34:01.132Z,20.53
2022-08-19T17:37:09.887Z,20.51
2022-08-19T17:40:23.224Z,20.50
2022-08-19T17:43:43.821Z,20.44
2022-08-19T17:46:48.678Z,20.37
2022-08-19T17:49:53.435Z,20.37
2022-08-19T17:53:02.413Z,20.33
2022-08-19T17:56:08.400Z,20.27
2022-08-19T17:59:14.359Z,20.22
2022-08-19T18:02:22.470Z,20.16
2022-08-19T18:05:31.625Z,20.16
2022-08-19T18:08:41.236Z,20.14
2022-08-19T18:11:45.822Z,20.09
2022-08-19T18:14:58.700Z,20.03
2022-08-19T18:18:03.310Z,19.99
2022-08-19T18:21:22.361Z,19.93
2022-08-19T18:24:26.716Z,19.90
2022-08-19T18:27:31.361Z,19.87
2022-08-19T18:30:36.075Z,19.88
2022-08-19T18:33:44.375Z,19.79
2022-08-19T18:36:56.390Z,19.75
2022-08-19T18:40:25.168Z,19.70
2022-08-19T18:43:52.148Z,19.64
2022-08-19T18:47:24.190Z,19.53
2022-08-19T18:50:37.392Z,19.48
2022-08-19T18:53:57.492Z,19.38
2022-08-19T18:57:05.824Z,19.33
2022-08-19T19:00:15.372Z,19.28
2022-08-19T19:03:20.690Z,19.26
2022-08-19T19:06:49.324Z,19.21
2022-08-19T19:09:53.936Z,19.16
2022-08-19T19:13:05.122Z,19.12
2022-08-19T19:16:13.107Z,19.06
2022-08-19T19:19:42.811Z,19.03
2022-08-19T19:22:59.651Z,18.99
2022-08-19T19:26:07.204Z,18.95
2022-08-19T19:29:13.479Z,18.90
2022-08-19T19:32:36.890Z,18.90
2022-08-19T19:35:47.093Z,18.86
2022-08-19T19:38:55.329Z,18.86
2022-08-19T19:42:00.430Z,18.81
2022-08-19T19:45:06.456Z,18.85
2022-08-19T19:48:15.374Z,18.87
2022-08-19T19:51:21.594Z,18.88
2022-08-19T19:54:28.313Z,18.89
2022-08-19T19:57:34.615Z,18.88
2022-08-19T20:00:39.645Z,18.77
2022-08-19T20:03:44.823Z,18.68
2022-08-19T20:06:49.442Z,18.65
2022-08-19T20:09:59.808Z,18.54
2022-08-19T20:13:06.115Z,18.52
2022-08-19T20:16:10.755Z,18.48
2022-08-19T20:19:20.427Z,18.45
2022-08-19T20:22:27.241Z,18.45
2022-08-19T20:25:42.490Z,18.45
2022-08-19T20:28:50.735Z,18.36
2022-08-19T20:32:06.251Z,18.33
2022-08-19T20:35:11.726Z,18.24
2022-08-19T20:38:16.597Z,18.19
2022-08-19T20:41:21.702Z,18.13
2022-08-19T20:44:29.537Z,18.13
2022-08-19T20:47:39.706Z,18.17
2022-08-19T20:50:44.256Z,18.15
2022-08-19T20:53:48.928Z,18.05
2022-08-19T20:56:54.568Z,18.05
2022-08-19T20:59:59.432Z,18.01
2022-08-19T21:03:06.893Z,18.00
2022-08-19T21:06:13.919Z,18.01
2022-08-19T21:09:18.816Z,17.97
2022-08-19T21:12:23.625Z,17.96
2022-08-19T21:15:28.360Z,17.90
2022-08-19T21:18:33.864Z,17.86
2022-08-19T21:21:39.273Z,17.73
2022-08-19T21:24:43.963Z,17.71
2022-08-19T21:27:49.144Z,17.72
2022-08-19T21:30:59.315Z,17.70
2022-08-19T21:34:06.192Z,17.63
2022-08-19T21:37:11.755Z,17.59
2022-08-19T21:40:26.653Z,17.65
2022-08-19T21:43:32.142Z,17.73
2022-08-19T21:46:37.463Z,17.74
2022-08-19T21:49:42.094Z,17.71
2022-08-19T21:52:47.745Z,17.72
2022-08-19T21:55:53.837Z,17.67
2022-08-19T21:58:58.787Z,17.70
2022-08-19T22:02:19.487Z,17.72
2022-08-19T22:05:26.178Z,17.69
2022-08-19T22:08:31.495Z,17.73
2022-08-19T22:11:36.616Z,17.73
2022-08-19T22:14:41.376Z,17.75
2022-08-19T22:17:45.739Z,17.76
2022-08-19T22:20:50.691Z,17.76
2022-08-19T22:23:55.444Z,17.81
2022-08-19T22:27:01.814Z,17.84
2022-08-19T22:30:12.892Z,17.81
2022-08-19T22:33:21.352Z,17.83
2022-08-19T22:36:27.061Z,17.82
2022-08-19T22:39:31.776Z,17.85
2022-08-19T22:42:38.551Z,17.84
2022-08-19T22:45:44.295Z,17.88
2022-08-19T22:48:55.948Z,17.92
2022-08-19T22:52:17.462Z,17.94
2022-08-19T22:55:22.542Z,17.91
2022-08-19T22:58:27.968Z,17.98
2022-08-19T23:01:33.146Z,18.00
2022-08-19T23:04:38.149Z,18.03
2022-08-19T23:07:42.454Z,18.11
2022-08-19T23:10:54.771Z,18.15
2022-08-19T23:13:59.020Z,18.16
2022-08-19T23:17:04.931Z,18.11
2022-08-19T23:20:15.847Z,18.18
2022-08-19T23:23:24.886Z,18.20
2022-08-19T23:26:32.727Z,18.21
2022-08-19T23:29:59.020Z,18.22
2022-08-19T23:33:13.507Z,18.22
2022-08-19T23:36:19.834Z,18.18
2022-08-19T23:39:24.191Z,18.19
2022-08-19T23:42:28.809Z,18.17
2022-08-19T23:45:38.166Z,18.18
2022-08-19T23:48:43.148Z,18.26
2022-08-19T23:51:47.548Z,18.32
2022-08-19T23:54:52.033Z,18.28
2022-08-19T23:57:58.004Z,18.26
